Time;durP1;ratioP1;P1;durP2;ratioP2;P2;SDS_P1;SDS_P2;PMS_P1;PMS_P2;Temp;Humidity;BMP_temperature;BMP_pressure;BME280_temperature;BME280_humidity;BME280_pressure;Samples;Min_cycle;Max_cycle;Signal;HPM_P1;HPM_P2
2022/09/25 00:00:28;;;;;;;54.60;30.50;;;;;;;6.54;77.21;98661.96;88753;1277;22673;-75
2022/09/25 00:02:50;;;;;;;53.80;31.00;;;;;;;6.46;77.15;98651.94;88839;1276;22572;-75
2022/09/25 00:04:52;;;;;;;48.40;28.70;;;;;;;6.45;77.06;98659.14;88812;1276;26048;-74
2022/09/25 00:06:54;;;;;;;49.40;28.20;;;;;;;6.41;76.98;98664.35;88714;1280;24256;-75
2022/09/25 00:08:56;;;;;;;54.90;30.20;;;;;;;6.37;77.08;98662.92;88723;1277;25463;-75
2022/09/25 00:10:58;;;;;;;50.60;30.80;;;;;;;6.36;77.19;98663.68;88993;1276;23146;-75
2022/09/25 00:13:01;;;;;;;54.20;30.90;;;;;;;6.28;77.18;98657.32;88871;1277;24212;-75
2022/09/25 00:15:05;;;;;;;53.60;30.10;;;;;;;6.28;77.17;98661.68;88770;1279;22570;-76
2022/09/25 00:17:07;;;;;;;55.50;30.70;;;;;;;6.21;77.23;98658.25;88866;1276;24232;-76
2022/09/25 00:21:41;;;;;;;50.30;31.30;;;;;;;6.16;77.42;98660.16;88978;1276;22692;-75
2022/09/25 00:23:44;;;;;;;57.40;30.20;;;;;;;6.14;77.41;98657.63;89002;1276;22567;-75
2022/09/25 00:25:52;;;;;;;54.40;29.50;;;;;;;6.12;77.32;98658.57;89081;1279;23534;-75
2022/09/25 00:27:54;;;;;;;44.80;27.20;;;;;;;6.09;77.40;98657.12;89043;1279;24228;-75
2022/09/25 00:29:58;;;;;;;57.80;27.30;;;;;;;6.07;77.35;98661.03;89259;1279;23867;-76
2022/09/25 00:32:00;;;;;;;53.70;25.60;;;;;;;6.05;77.44;98657.07;89165;1276;22666;-76
2022/09/25 00:34:03;;;;;;;51.40;27.10;;;;;;;6.02;77.57;98652.98;88670;1282;22622;-75
2022/09/25 00:36:08;;;;;;;52.10;26.60;;;;;;;6.05;77.65;98658.64;89001;1277;22822;-75
2022/09/25 00:38:10;;;;;;;45.40;25.50;;;;;;;6.06;77.66;98654.09;88800;1278;23473;-74
2022/09/25 00:40:12;;;;;;;45.20;25.40;;;;;;;6.07;77.69;98655.96;88845;1279;22571;-76
2022/09/25 00:42:17;;;;;;;39.50;23.80;;;;;;;6.07;77.63;98655.27;88778;1279;22563;-74
2022/09/25 00:44:47;;;;;;;39.40;24.50;;;;;;;6.06;77.61;98653.91;88654;1279;23097;-75
2022/09/25 00:46:52;;;;;;;42.50;24.20;;;;;;;6.04;77.78;98649.80;88828;1276;24291;-75
2022/09/25 00:49:12;;;;;;;44.30;22.60;;;;;;;6.03;77.72;98648.07;88852;1279;23447;-74
2022/09/25 00:51:15;;;;;;;42.10;22.60;;;;;;;6.03;77.81;98643.37;89099;1278;22584;-76
2022/09/25 00:53:35;;;;;;;44.60;22.70;;;;;;;6.01;77.82;98642.59;88968;1279;22637;-75
2022/09/25 00:55:42;;;;;;;42.90;22.80;;;;;;;6.00;77.92;98639.80;88658;1279;23327;-75
2022/09/25 00:57:47;;;;;;;39.30;23.00;;;;;;;6.04;77.97;98637.25;88927;1279;23231;-75
2022/09/25 00:59:54;;;;;;;46.40;26.80;;;;;;;6.05;77.94;98634.73;88903;1276;23975;-74
2022/09/25 01:01:58;;;;;;;45.40;28.50;;;;;;;6.06;78.03;98634.91;89120;1276;22619;-75
2022/09/25 01:04:02;;;;;;;42.90;26.60;;;;;;;6.05;78.02;98631.95;89057;1276;25384;-75
2022/09/25 01:06:05;;;;;;;47.00;27.40;;;;;;;6.06;78.22;98633.65;88957;1278;22833;-74
2022/09/25 01:08:11;;;;;;;44.80;26.50;;;;;;;6.08;78.14;98633.60;88815;1279;22718;-74
2022/09/25 01:10:15;;;;;;;47.50;26.30;;;;;;;6.11;78.32;98634.89;88802;1279;22601;-75
2022/09/25 01:12:16;;;;;;;47.50;26.20;;;;;;;6.12;78.28;98631.36;88844;1279;25980;-74
2022/09/25 01:14:21;;;;;;;45.40;26.00;;;;;;;6.14;78.29;98627.10;88972;1277;23418;-75
2022/09/25 01:16:54;;;;;;;60.60;26.20;;;;;;;6.16;78.43;98623.02;88718;1276;22564;-75
2022/09/25 01:19:25;;;;;;;51.70;24.40;;;;;;;6.18;78.36;98622.09;88764;1279;24157;-75
2022/09/25 01:21:43;;;;;;;45.00;25.50;;;;;;;6.17;78.44;98617.94;88748;1276;22612;-74
2022/09/25 01:24:10;;;;;;;43.60;22.90;;;;;;;6.20;78.32;98613.63;88589;1281;22569;-75
2022/09/25 01:26:35;;;;;;;42.10;23.10;;;;;;;6.22;78.41;98614.61;88747;1277;25280;-76
2022/09/25 01:28:40;;;;;;;40.00;22.20;;;;;;;6.24;78.57;98611.90;88723;1279;24219;-74
2022/09/25 01:30:49;;;;;;;35.90;22.20;;;;;;;6.28;78.40;98608.79;88979;1276;22591;-76
2022/09/25 01:33:06;;;;;;;41.40;22.20;;;;;;;6.28;78.39;98608.80;88846;1281;22717;-74
2022/09/25 01:35:30;;;;;;;43.30;23.00;;;;;;;6.26;78.50;98605.72;88792;1276;22743;-76
2022/09/25 01:37:42;;;;;;;34.50;20.70;;;;;;;6.22;78.48;98604.67;89116;1279;22579;-76
2022/09/25 01:39:51;;;;;;;33.20;20.20;;;;;;;6.21;78.41;98614.29;89079;1279;22588;-73
2022/09/25 01:41:58;;;;;;;31.80;20.90;;;;;;;6.21;78.44;98616.56;89443;1276;22540;-75
2022/09/25 01:44:47;;;;;;;35.70;21.90;;;;;;;6.22;78.58;98616.02;89110;1277;23325;-75
2022/09/25 01:46:55;;;;;;;39.10;22.70;;;;;;;6.23;78.62;98616.15;88683;1282;22543;-75
2022/09/25 01:49:02;;;;;;;39.30;24.00;;;;;;;6.25;78.52;98615.55;88516;1284;22760;-76
2022/09/25 01:51:20;;;;;;;39.30;22.20;;;;;;;6.26;78.53;98614.83;88805;1285;22585;-75
2022/09/25 01:53:33;;;;;;;40.30;20.70;;;;;;;6.27;78.65;98616.16;88901;1282;22803;-75
2022/09/25 01:55:51;;;;;;;41.90;20.60;;;;;;;6.29;78.66;98612.28;88313;1285;22589;-74
2022/09/25 01:58:15;;;;;;;33.20;21.90;;;;;;;6.29;78.78;98610.16;88333;1282;22581;-76
2022/09/25 02:00:24;;;;;;;37.50;22.90;;;;;;;6.30;78.71;98607.67;88496;1282;22710;-74
2022/09/25 02:02:35;;;;;;;33.80;22.00;;;;;;;6.34;78.70;98608.96;88288;1285;23080;-76
2022/09/25 02:04:42;;;;;;;36.10;21.60;;;;;;;6.36;79.05;98609.05;88582;1282;22580;-74
2022/09/25 02:06:48;;;;;;;37.80;22.90;;;;;;;6.37;78.88;98604.98;88657;1285;22550;-75
2022/09/25 02:09:01;;;;;;;33.60;21.20;;;;;;;6.42;78.99;98606.55;88421;1285;22650;-76
2022/09/25 02:11:06;;;;;;;39.90;25.10;;;;;;;6.44;78.89;98610.15;88344;1284;22601;-75
2022/09/25 02:13:14;;;;;;;44.80;27.90;;;;;;;6.46;78.88;98610.23;88793;1284;22600;-75
2022/09/25 02:15:25;;;;;;;43.50;28.70;;;;;;;6.49;78.91;98610.11;88520;1282;24372;-75
2022/09/25 02:22:27;;;;;;;;;;;;;;;6.59;79.09;98612.89;88897;1276;25986;-74
2022/09/25 02:24:38;;;;;;;52.40;30.40;;;;;;;6.62;79.17;98612.59;88971;1276;25677;-75
2022/09/25 02:26:42;;;;;;;51.80;30.40;;;;;;;6.67;79.08;98608.61;89056;1276;22592;-74
2022/09/25 02:28:44;;;;;;;45.10;27.70;;;;;;;6.69;79.39;98612.34;88734;1282;22595;-74
2022/09/25 02:30:48;;;;;;;51.50;28.50;;;;;;;6.71;79.13;98608.08;88695;1277;22698;-75
2022/09/25 02:32:49;;;;;;;52.80;27.20;;;;;;;6.73;79.03;98604.33;89090;1276;22568;-74
2022/09/25 02:34:51;;;;;;;46.10;26.90;;;;;;;6.76;79.18;98599.85;88914;1276;24236;-74
2022/09/25 02:36:54;;;;;;;47.20;26.80;;;;;;;6.79;79.01;98600.95;88678;1279;24341;-75
2022/09/25 02:38:56;;;;;;;44.90;25.70;;;;;;;6.82;79.25;98599.10;88696;1276;25417;-74
2022/09/25 02:41:24;;;;;;;38.80;25.00;;;;;;;6.83;79.23;98595.75;88461;1278;22728;-76
2022/09/25 02:43:47;;;;;;;30.90;21.90;;;;;;;6.84;79.33;98595.55;88029;1282;22916;-74
2022/09/25 02:46:01;;;;;;;35.90;22.00;;;;;;;6.87;79.35;98599.80;88345;1285;22704;-75
2022/09/25 02:48:12;;;;;;;42.20;23.80;;;;;;;6.88;79.37;98600.09;88619;1282;25595;-75
2022/09/25 02:50:19;;;;;;;41.30;23.90;;;;;;;6.91;79.10;98602.08;88695;1282;22608;-73
2022/09/25 02:52:27;;;;;;;38.90;24.80;;;;;;;6.92;79.29;98597.13;88674;1284;22511;-76
2022/09/25 02:54:37;;;;;;;38.30;23.20;;;;;;;6.95;79.42;98599.80;88356;1284;25211;-75
2022/09/25 02:56:47;;;;;;;36.50;23.10;;;;;;;6.97;79.21;98598.35;88539;1284;22587;-74
2022/09/25 02:58:57;;;;;;;;;;;;;;;6.98;79.38;98600.36;88393;1285;22913;-75
2022/09/25 03:01:02;;;;;;;31.50;19.20;;;;;;;6.98;79.43;98601.77;88227;1285;25410;-75
2022/09/25 03:03:07;;;;;;;31.70;21.90;;;;;;;7.01;79.64;98599.27;88557;1284;22641;-75
2022/09/25 03:05:13;;;;;;;37.70;22.30;;;;;;;7.04;79.74;98600.36;88566;1285;22586;-75
2022/09/25 03:07:17;;;;;;;43.00;24.30;;;;;;;7.05;79.56;98596.79;88390;1283;24020;-76
2022/09/25 03:09:22;;;;;;;38.30;22.70;;;;;;;7.07;79.50;98592.52;88381;1284;22591;-74
2022/09/25 03:11:26;;;;;;;35.60;22.60;;;;;;;7.08;79.64;98588.30;88301;1287;22614;-74
2022/09/25 03:13:32;;;;;;;35.00;21.50;;;;;;;7.10;79.49;98590.15;88650;1284;22560;-74
2022/09/25 03:15:35;;;;;;;42.60;22.80;;;;;;;7.12;79.76;98580.60;88713;1282;22596;-74
2022/09/25 03:17:41;;;;;;;36.40;23.40;;;;;;;7.15;79.82;98580.85;88319;1284;22580;-74
2022/09/25 03:19:43;;;;;;;43.30;21.40;;;;;;;7.18;79.67;98574.79;88789;1284;23207;-75
2022/09/25 03:21:48;;;;;;;37.20;21.30;;;;;;;7.21;79.52;98572.39;88890;1279;22528;-74
2022/09/25 03:23:55;;;;;;;36.80;21.90;;;;;;;7.24;79.70;98575.08;88820;1279;22665;-76
2022/09/25 03:25:58;;;;;;;36.40;21.90;;;;;;;7.26;79.55;98574.81;89030;1279;23358;-75
2022/09/25 03:28:01;;;;;;;29.50;20.40;;;;;;;7.27;79.68;98573.02;88547;1282;22646;-74
2022/09/25 03:30:06;;;;;;;32.40;21.00;;;;;;;7.29;79.68;98575.05;89020;1279;22567;-75
2022/09/25 03:32:09;;;;;;;35.90;21.70;;;;;;;7.30;79.65;98572.02;88928;1279;22643;-76
2022/09/25 03:34:13;;;;;;;31.10;19.80;;;;;;;7.32;79.66;98570.21;88875;1281;23947;-74
2022/09/25 03:36:20;;;;;;;31.50;21.30;;;;;;;7.32;79.65;98572.30;88765;1281;23944;-74
2022/09/25 03:38:23;;;;;;;28.10;20.40;;;;;;;7.30;79.69;98570.79;88647;1279;22612;-74
2022/09/25 03:40:28;;;;;;;41.30;21.90;;;;;;;7.32;79.84;98570.70;88856;1281;22576;-75
2022/09/25 03:42:31;;;;;;;32.20;20.40;;;;;;;7.35;80.06;98572.02;88580;1281;24671;-74
2022/09/25 03:44:33;;;;;;;30.10;19.80;;;;;;;7.36;79.91;98568.63;88948;1279;22661;-73
2022/09/25 03:46:35;;;;;;;31.50;20.50;;;;;;;7.38;79.69;98571.73;88989;1279;22860;-74
2022/09/25 03:48:38;;;;;;;38.60;22.40;;;;;;;7.38;79.84;98569.96;88855;1276;22566;-75
2022/09/25 03:50:40;;;;;;;35.90;20.80;;;;;;;7.38;79.84;98569.09;88747;1278;23065;-76
2022/09/25 03:52:44;;;;;;;30.40;19.20;;;;;;;7.39;79.68;98566.79;88655;1282;23130;-73
2022/09/25 03:54:48;;;;;;;34.30;21.60;;;;;;;7.39;79.90;98568.15;88964;1281;24380;-74
2022/09/25 03:56:50;;;;;;;31.70;21.10;;;;;;;7.40;79.81;98566.91;88978;1279;22558;-75
2022/09/25 03:58:53;;;;;;;29.30;21.00;;;;;;;7.35;79.93;98558.36;88877;1278;22797;-75
2022/09/25 04:00:57;;;;;;;37.10;21.00;;;;;;;7.39;79.89;98564.86;88594;1281;22626;-74
2022/09/25 04:02:59;;;;;;;30.90;19.80;;;;;;;7.38;79.96;98564.55;88794;1279;22884;-74
2022/09/25 04:05:02;;;;;;;29.70;20.80;;;;;;;7.38;80.10;98563.14;88866;1279;24187;-75
2022/09/25 04:07:05;;;;;;;39.20;21.30;;;;;;;7.37;79.82;98560.20;88909;1278;22799;-74
2022/09/25 04:09:08;;;;;;;31.80;20.60;;;;;;;7.40;79.95;98561.49;88759;1279;22581;-76
2022/09/25 04:11:10;;;;;;;37.40;22.10;;;;;;;7.40;79.65;98564.11;88643;1281;22570;-76
2022/09/25 04:13:12;;;;;;;31.10;21.90;;;;;;;7.38;79.94;98561.23;88987;1279;25381;-75
2022/09/25 04:15:14;;;;;;;32.10;21.80;;;;;;;7.36;79.99;98563.22;88511;1282;23578;-74
2022/09/25 04:17:15;;;;;;;36.60;21.90;;;;;;;7.37;80.02;98561.61;88814;1279;22583;-74
2022/09/25 04:19:17;;;;;;;34.00;20.40;;;;;;;7.39;80.19;98562.77;88691;1279;22596;-75
2022/09/25 04:21:21;;;;;;;31.80;20.80;;;;;;;7.39;80.10;98560.29;88870;1279;22617;-73
2022/09/25 04:23:23;;;;;;;42.80;21.40;;;;;;;7.40;80.16;98561.67;88794;1279;23593;-74
2022/09/25 04:25:26;;;;;;;33.60;21.20;;;;;;;7.40;80.04;98562.39;88989;1278;23226;-75
2022/09/25 04:27:31;;;;;;;30.50;21.40;;;;;;;7.37;79.81;98567.89;88745;1281;24216;-74
2022/09/25 04:29:33;;;;;;;33.10;20.60;;;;;;;7.32;79.90;98563.20;88761;1281;22603;-75
2022/09/25 04:31:38;;;;;;;35.60;20.40;;;;;;;7.30;79.71;98562.59;88914;1279;22602;-75
2022/09/25 04:33:46;;;;;;;32.60;20.00;;;;;;;7.27;79.97;98561.31;90015;1279;22551;-76
2022/09/25 04:35:50;;;;;;;37.70;20.50;;;;;;;7.24;79.80;98564.95;90455;1279;23033;-75
2022/09/25 04:37:53;;;;;;;33.20;19.50;;;;;;;7.23;79.83;98570.04;90286;1281;22697;-76
2022/09/25 04:39:58;;;;;;;26.00;18.30;;;;;;;7.23;79.86;98563.93;90476;1279;22573;-75
2022/09/25 04:42:00;;;;;;;28.20;18.80;;;;;;;7.23;80.00;98563.05;90474;1279;22655;-75
2022/09/25 04:44:04;;;;;;;34.10;18.80;;;;;;;7.24;80.20;98562.16;90484;1279;22615;-75
2022/09/25 04:46:10;;;;;;;34.70;18.30;;;;;;;7.24;80.12;98559.88;90293;1279;22743;-75
2022/09/25 04:48:13;;;;;;;35.80;18.20;;;;;;;7.26;80.20;98562.25;90489;1279;22565;-75
2022/09/25 04:50:21;;;;;;;34.70;18.70;;;;;;;7.24;80.23;98556.17;90470;1279;23052;-74
2022/09/25 04:52:27;;;;;;;31.10;17.90;;;;;;;7.26;80.10;98556.64;90521;1279;22709;-75
2022/09/25 04:54:30;;;;;;;24.80;17.70;;;;;;;7.23;80.18;98552.91;90020;1284;22573;-75
2022/09/25 04:56:32;;;;;;;32.10;19.20;;;;;;;7.28;80.46;98553.77;90527;1279;23203;-77
2022/09/25 04:58:35;;;;;;;28.40;18.40;;;;;;;7.29;80.62;98556.84;90395;1279;22540;-75
2022/09/25 05:00:38;;;;;;;27.40;19.10;;;;;;;7.31;80.23;98557.98;90257;1279;22619;-75
2022/09/25 05:02:40;;;;;;;34.10;19.00;;;;;;;7.32;80.39;98558.14;90315;1279;23020;-75
2022/09/25 05:04:42;;;;;;;42.80;18.50;;;;;;;7.33;80.43;98560.18;90191;1281;22588;-76
2022/09/25 05:06:46;;;;;;;26.50;18.10;;;;;;;7.35;80.32;98559.77;90123;1280;22701;-77
2022/09/25 05:08:48;;;;;;;36.30;19.40;;;;;;;7.36;80.48;98559.03;90195;1281;22547;-76
2022/09/25 05:10:51;;;;;;;26.80;18.20;;;;;;;7.36;80.22;98554.11;90170;1281;22899;-75
2022/09/25 05:13:01;;;;;;;34.50;18.90;;;;;;;7.40;80.32;98558.18;90330;1277;22568;-76
2022/09/25 05:15:03;;;;;;;32.50;19.00;;;;;;;7.43;80.17;98556.98;89993;1281;22756;-76
2022/09/25 05:17:05;;;;;;;32.20;19.50;;;;;;;7.45;80.35;98556.38;90046;1281;22629;-78
2022/09/25 05:19:07;;;;;;;31.30;18.70;;;;;;;7.48;80.65;98563.06;90089;1281;23963;-76
2022/09/25 05:21:13;;;;;;;25.00;18.60;;;;;;;7.51;80.69;98567.48;90019;1282;22958;-76
2022/09/25 05:23:19;;;;;;;30.70;19.90;;;;;;;7.55;80.40;98567.51;90225;1279;23054;-76
2022/09/25 05:25:22;;;;;;;28.30;17.60;;;;;;;7.58;80.52;98567.89;90163;1279;22533;-75
2022/09/25 05:27:27;;;;;;;25.40;17.60;;;;;;;7.61;80.84;98569.31;90112;1279;22689;-75
2022/09/25 05:29:30;;;;;;;26.50;17.90;;;;;;;7.65;80.64;98569.33;90128;1280;22529;-76
2022/09/25 05:31:32;;;;;;;28.10;18.20;;;;;;;7.67;80.43;98574.33;90137;1280;22643;-75
2022/09/25 05:33:35;;;;;;;28.00;17.60;;;;;;;7.72;80.92;98571.69;89945;1282;23902;-75
2022/09/25 05:35:37;;;;;;;23.90;18.10;;;;;;;7.75;80.88;98571.88;90125;1281;22609;-75
2022/09/25 05:37:39;;;;;;;29.10;17.80;;;;;;;7.80;80.71;98573.93;89847;1281;22609;-76
2022/09/25 05:39:42;;;;;;;24.90;17.60;;;;;;;7.83;80.94;98572.77;89913;1281;22977;-76
2022/09/25 05:41:45;;;;;;;34.40;17.20;;;;;;;7.89;80.78;98574.59;90205;1281;22621;-76
2022/09/25 05:43:47;;;;;;;27.50;17.50;;;;;;;7.95;80.82;98572.25;90249;1279;22604;-75
2022/09/25 05:45:55;;;;;;;25.30;17.20;;;;;;;8.00;80.72;98569.91;90489;1277;22629;-76
2022/09/25 05:48:02;;;;;;;19.70;16.10;;;;;;;8.05;80.82;98569.52;89939;1281;26715;-76
2022/09/25 05:50:06;;;;;;;17.80;14.10;;;;;;;8.10;80.74;98569.68;90203;1279;23037;-75
2022/09/25 05:52:08;;;;;;;20.80;13.80;;;;;;;8.14;80.68;98570.00;90416;1279;22614;-75
2022/09/25 05:54:10;;;;;;;20.10;14.20;;;;;;;8.19;80.84;98569.97;90284;1279;22600;-77
2022/09/25 05:56:12;;;;;;;21.80;15.80;;;;;;;8.26;80.81;98566.87;90376;1278;22509;-77
2022/09/25 05:58:14;;;;;;;23.10;16.50;;;;;;;8.32;80.96;98571.46;90334;1279;22695;-77
2022/09/25 06:00:16;;;;;;;23.00;17.30;;;;;;;8.39;80.87;98576.06;90253;1280;22723;-76
2022/09/25 06:02:18;;;;;;;22.00;15.20;;;;;;;8.44;80.80;98575.48;90436;1281;23096;-76
2022/09/25 06:19:09;;;;;;;;;;;;;;;;;;;;;
2022/09/25 06:38:43;;;;;;;;;;;;;;;;;;;;;
2022/09/25 06:50:40;;;;;;;;;;;;;;;;;;;;;
2022/09/25 07:16:38;;;;;;;;;;;;;;;;;;;;;
2022/09/25 07:29:34;;;;;;;;;;;;;;;;;;;;;
2022/09/25 07:36:35;;;;;;;;;;;;;;;;;;;;;
2022/09/25 07:43:48;;;;;;;25.40;17.40;;;;;;;10.92;80.66;98558.59;90452;1281;22438;-81
2022/09/25 07:52:55;;;;;;;;;;;;;;;;;;;;;
2022/09/25 07:57:32;;;;;;;;;;;;;;;;;;;;;
2022/09/25 08:00:16;;;;;;;30.70;18.10;;;;;;;11.02;80.33;98557.45;90150;1282;22449;-78
2022/09/25 08:03:11;;;;;;;;;;;;;;;;;;;;;
2022/09/25 08:06:04;;;;;;;28.10;17.00;;;;;;;11.06;80.50;98563.23;90008;1282;22500;-78
2022/09/25 08:09:06;;;;;;;24.90;16.60;;;;;;;11.05;80.26;98565.02;89523;1289;22435;-79
2022/09/25 08:11:53;;;;;;;23.80;16.20;;;;;;;11.04;80.58;98563.84;89497;1291;22430;-76
2022/09/25 08:14:45;;;;;;;;;;;;;;;;;;;;;
2022/09/25 08:17:52;;;;;;;28.20;18.20;;;;;;;11.04;80.74;98567.00;88953;1297;22506;-78
2022/09/25 08:23:57;;;;;;;22.00;17.10;;;;;;;11.09;80.79;98562.55;88987;1297;22325;-79
2022/09/25 08:26:58;;;;;;;27.10;16.50;;;;;;;11.10;81.13;98568.65;88614;1300;22810;-77
2022/09/25 08:29:50;;;;;;;21.70;16.40;;;;;;;11.14;81.00;98569.27;88206;1306;22350;-75
2022/09/25 08:32:53;;;;;;;28.80;16.30;;;;;;;11.16;81.28;98568.27;84277;1308;5413079;-80
2022/09/25 08:35:30;;;;;;;38.90;15.40;;;;;;;11.18;80.98;98564.14;88202;1308;22199;-77
2022/09/25 08:38:26;;;;;;;21.10;16.50;;;;;;;11.17;81.26;98558.59;88307;1305;22373;-76
2022/09/25 08:41:08;;;;;;;;;;;;;;;;;;;;;
2022/09/25 08:43:31;;;;;;;23.30;15.40;;;;;;;11.20;81.23;98555.25;88505;1302;22342;-76
2022/09/25 08:50:22;;;;;;;26.30;16.50;;;;;;;11.21;81.26;98547.41;90647;1268;90351;-71
2022/09/25 08:52:31;;;;;;;17.40;14.30;;;;;;;11.22;81.34;98541.55;90840;1276;22410;-73
2022/09/25 08:54:36;;;;;;;22.80;13.80;;;;;;;11.25;81.32;98542.29;90847;1276;22349;-73
2022/09/25 08:56:39;;;;;;;17.80;12.80;;;;;;;11.25;81.28;98541.38;90543;1280;22508;-73
2022/09/25 08:58:54;;;;;;;16.90;13.40;;;;;;;11.26;81.15;98539.93;90739;1276;22505;-73
2022/09/25 09:01:03;;;;;;;14.70;12.70;;;;;;;11.26;81.26;98535.52;90833;1276;22506;-73
2022/09/25 09:03:09;;;;;;;19.60;12.70;;;;;;;11.28;81.17;98531.39;90846;1276;22416;-73
2022/09/25 09:05:19;;;;;;;14.30;12.10;;;;;;;11.29;81.25;98535.17;90712;1277;22924;-73
2022/09/25 09:07:33;;;;;;;13.70;12.00;;;;;;;11.29;81.17;98529.05;90811;1276;22354;-73
2022/09/25 09:09:51;;;;;;;22.40;15.10;;;;;;;11.27;81.08;98527.55;90673;1279;22424;-73
2022/09/25 09:12:05;;;;;;;24.00;17.90;;;;;;;11.24;81.19;98517.02;90612;1279;22417;-73
2022/09/25 09:14:15;;;;;;;24.20;19.10;;;;;;;11.29;81.34;98516.88;90681;1278;22398;-72
2022/09/25 09:16:27;;;;;;;26.20;20.60;;;;;;;11.28;81.32;98513.06;90824;1276;22404;-74
2022/09/25 09:18:35;;;;;;;27.80;21.20;;;;;;;11.21;81.37;98501.69;90631;1277;22525;-73
2022/09/25 09:20:51;;;;;;;33.70;20.40;;;;;;;11.29;81.37;98510.23;90659;1279;22385;-73
2022/09/25 09:22:54;;;;;;;28.40;19.80;;;;;;;11.26;81.36;98509.33;90517;1279;22724;-72
2022/09/25 09:25:27;;;;;;;29.30;19.80;;;;;;;11.26;81.36;98510.02;90824;1276;23108;-73
2022/09/25 09:27:57;;;;;;;24.50;19.10;;;;;;;11.28;81.49;98514.14;89708;1287;22479;-73
2022/09/25 09:30:19;;;;;;;36.10;20.00;;;;;;;11.29;81.51;98514.77;89861;1287;22556;-72
2022/09/25 09:32:45;;;;;;;28.60;17.30;;;;;;;11.29;81.52;98512.16;89890;1287;22411;-73
2022/09/25 09:35:24;;;;;;;21.50;14.30;;;;;;;11.28;81.44;98512.38;89868;1287;22441;-73
2022/09/25 09:37:37;;;;;;;18.10;15.50;;;;;;;11.28;81.19;98510.79;89082;1295;22413;-72
2022/09/25 09:39:48;;;;;;;22.80;15.90;;;;;;;11.28;81.25;98510.95;89231;1292;22463;-72
2022/09/25 09:41:57;;;;;;;22.10;16.70;;;;;;;11.29;81.17;98510.89;89201;1293;22414;-73
2022/09/25 09:44:24;;;;;;;19.60;16.30;;;;;;;11.29;81.21;98508.44;89079;1294;22429;-72
2022/09/25 09:46:55;;;;;;;22.40;16.60;;;;;;;11.30;81.40;98506.13;89204;1294;22424;-72
2022/09/25 09:49:20;;;;;;;25.60;16.90;;;;;;;11.31;81.25;98502.03;89237;1293;22433;-74
2022/09/25 09:51:34;;;;;;;20.30;17.10;;;;;;;11.30;81.34;98498.71;89043;1297;22327;-73
2022/09/25 09:53:47;;;;;;;26.60;19.50;;;;;;;11.30;81.56;98497.81;89222;1293;22413;-72
2022/09/25 09:55:52;;;;;;;30.00;20.70;;;;;;;11.31;81.52;98492.70;89233;1293;22590;-73
2022/09/25 09:57:58;;;;;;;27.20;20.30;;;;;;;11.30;81.50;98489.91;89213;1294;22437;-72
2022/09/25 10:00:05;;;;;;;30.90;18.80;;;;;;;11.31;81.15;98491.44;89222;1293;22524;-72
2022/09/25 10:02:22;;;;;;;22.40;16.60;;;;;;;11.31;81.31;98492.66;89068;1295;22410;-72
2022/09/25 10:04:30;;;;;;;29.00;21.40;;;;;;;11.32;81.57;98495.95;89244;1291;22541;-73
2022/09/25 10:07:17;;;;;;;31.10;22.80;;;;;;;11.34;81.48;98501.82;89709;1288;22515;-72
2022/09/25 10:09:18;;;;;;;26.00;20.50;;;;;;;11.37;81.52;98499.91;89956;1285;22461;-73
2022/09/25 10:11:21;;;;;;;29.80;20.60;;;;;;;11.38;81.48;98502.30;89747;1287;23091;-73
2022/09/25 10:13:31;;;;;;;27.30;19.00;;;;;;;11.40;81.46;98501.96;90102;1285;22523;-72
2022/09/25 10:15:59;;;;;;;30.90;18.80;;;;;;;11.44;81.53;98501.63;90643;1279;22538;-73
2022/09/25 10:18:02;;;;;;;25.40;18.50;;;;;;;11.46;81.44;98501.98;90477;1281;22462;-73
2022/09/25 10:20:15;;;;;;;26.00;19.60;;;;;;;11.50;81.46;98502.30;90500;1279;22235;-74
2022/09/25 10:22:27;;;;;;;21.30;16.80;;;;;;;11.53;81.51;98502.29;90639;1277;23175;-72
2022/09/25 10:25:00;;;;;;;22.50;17.40;;;;;;;11.57;81.54;98495.89;90724;1277;23284;-73
2022/09/25 10:27:29;;;;;;;23.60;15.90;;;;;;;11.60;81.62;98486.58;90706;1278;23084;-72
2022/09/25 10:29:31;;;;;;;30.20;16.10;;;;;;;11.63;81.50;98485.18;90656;1279;22860;-72
2022/09/25 10:31:39;;;;;;;23.40;16.10;;;;;;;11.64;81.46;98483.17;90769;1276;22396;-74
2022/09/25 10:33:40;;;;;;;19.90;15.30;;;;;;;11.68;81.47;98483.81;90702;1277;22438;-73
2022/09/25 10:35:44;;;;;;;22.40;14.80;;;;;;;11.72;81.45;98484.09;90500;1281;23266;-72
2022/09/25 10:37:50;;;;;;;19.90;14.80;;;;;;;11.74;81.40;98483.58;90756;1277;22505;-73
2022/09/25 10:40:05;;;;;;;16.00;13.10;;;;;;;11.78;81.38;98487.39;90662;1279;22488;-73
2022/09/25 10:42:40;;;;;;;18.10;12.60;;;;;;;11.83;81.28;98486.80;90486;1280;22388;-74
2022/09/25 10:44:42;;;;;;;15.30;11.40;;;;;;;11.86;81.11;98485.16;90592;1279;22815;-74
2022/09/25 10:52:08;;;;;;;13.50;11.20;;;;;;;11.97;80.99;98487.70;90553;1277;22426;-74
2022/09/25 10:54:12;;;;;;;19.20;10.90;;;;;;;12.01;81.08;98488.84;90666;1279;22504;-74
2022/09/25 10:56:34;;;;;;;15.30;10.50;;;;;;;12.04;80.99;98491.30;90664;1279;22526;-74
2022/09/25 10:58:41;;;;;;;11.70;10.50;;;;;;;12.06;80.77;98491.14;90689;1279;22524;-74
2022/09/25 11:00:46;;;;;;;11.70;10.40;;;;;;;12.08;80.72;98494.92;90826;1276;22513;-74
2022/09/25 11:02:52;;;;;;;13.00;11.40;;;;;;;12.12;80.96;98488.89;90708;1277;22323;-74
2022/09/25 11:04:56;;;;;;;13.40;10.90;;;;;;;12.16;80.78;98492.55;90620;1279;22418;-73
2022/09/25 11:07:06;;;;;;;25.50;11.00;;;;;;;12.19;80.90;98492.13;90649;1277;22498;-74
2022/09/25 11:09:15;;;;;;;12.10;10.80;;;;;;;12.23;80.88;98484.82;90743;1278;22438;-74
2022/09/25 11:11:21;;;;;;;11.60;10.30;;;;;;;12.28;80.95;98488.58;90665;1279;22582;-74
2022/09/25 11:13:35;;;;;;;14.50;10.60;;;;;;;12.32;80.87;98487.12;90662;1279;22402;-74
2022/09/25 11:15:38;;;;;;;12.10;10.90;;;;;;;12.36;80.79;98484.73;90545;1279;22434;-75
2022/09/25 11:17:44;;;;;;;14.80;11.60;;;;;;;12.41;80.75;98479.30;90689;1276;22414;-74
2022/09/25 11:20:21;;;;;;;16.50;11.30;;;;;;;12.42;80.94;98470.99;90708;1278;22301;-74
2022/09/25 11:22:35;;;;;;;15.00;12.90;;;;;;;12.51;80.80;98471.61;90816;1276;23132;-74
2022/09/25 11:25:17;;;;;;;21.30;14.10;;;;;;;12.54;80.84;98467.73;90741;1276;23337;-75
2022/09/25 11:27:34;;;;;;;20.50;13.60;;;;;;;12.57;80.72;98465.81;90137;1284;22438;-75
2022/09/25 11:29:45;;;;;;;21.10;13.80;;;;;;;12.60;80.63;98470.71;90061;1284;22495;-74
2022/09/25 11:31:50;;;;;;;;;;;;;;;12.63;80.61;98471.04;89752;1287;22556;-74
2022/09/25 11:34:09;;;;;;;24.50;13.70;;;;;;;12.66;80.69;98472.96;89974;1287;22422;-74
2022/09/25 11:36:30;;;;;;;20.10;14.20;;;;;;;12.70;80.80;98475.73;90027;1284;22397;-74
2022/09/25 11:41:21;;;;;;;19.80;13.30;;;;;;;12.80;80.58;98463.95;90119;1284;23132;-74
2022/09/25 11:43:45;;;;;;;20.00;12.50;;;;;;;12.85;80.70;98462.36;90148;1285;22437;-75
2022/09/25 11:45:56;;;;;;;15.80;11.30;;;;;;;12.90;80.82;98460.27;89992;1285;22548;-75
2022/09/25 11:48:05;;;;;;;13.30;11.60;;;;;;;12.92;80.66;98456.80;90125;1285;22650;-75
2022/09/25 11:50:15;;;;;;;21.40;11.80;;;;;;;12.93;80.41;98450.90;90127;1285;23286;-75
2022/09/25 11:52:35;;;;;;;12.40;11.20;;;;;;;12.96;80.52;98452.35;90000;1285;22577;-75
2022/09/25 11:54:57;;;;;;;14.00;11.50;;;;;;;13.00;80.52;98446.77;90016;1283;22453;-75
2022/09/25 11:57:01;;;;;;;18.90;10.80;;;;;;;13.04;80.52;98443.11;90183;1285;22455;-76
2022/09/25 11:59:09;;;;;;;18.70;11.40;;;;;;;13.09;80.45;98440.19;90033;1285;22422;-75
2022/09/25 12:01:31;;;;;;;13.10;11.60;;;;;;;13.12;80.46;98438.41;90138;1285;22412;-75
2022/09/25 12:04:17;;;;;;;14.60;11.50;;;;;;;13.15;80.39;98435.39;90171;1283;22576;-75
2022/09/25 12:07:01;;;;;;;12.80;11.40;;;;;;;13.18;80.37;98442.39;90019;1285;22639;-76
2022/09/25 12:09:28;;;;;;;21.10;11.80;;;;;;;13.21;80.54;98445.88;90006;1284;22406;-74
2022/09/25 12:11:45;;;;;;;14.00;10.50;;;;;;;13.23;80.28;98440.12;90192;1284;22509;-75
2022/09/25 12:14:09;;;;;;;10.90;9.70;;;;;;;13.25;80.29;98431.11;90192;1285;22449;-75
2022/09/25 12:16:35;;;;;;;8.40;7.70;;;;;;;13.28;80.29;98427.27;89971;1285;22455;-74
2022/09/25 12:18:55;;;;;;;16.70;8.70;;;;;;;13.29;80.38;98421.84;90121;1284;23318;-74
2022/09/25 12:21:15;;;;;;;12.00;9.60;;;;;;;13.32;80.23;98410.41;90117;1285;22508;-75